Список аэропортов
Фактическая погода:

19 августа, 04:30
Температура: +20°C (+20.0*)
Ветер: юго-западный 3 м/с
Давление: *756 мм
Без существ. явл.
Время (МСК)Темп. СВетерВлажностьДавлениеОблачностьОсадки
03:00+22ЮЗ, 4 м/с68%1007 гПас прояснениями
04:00+21ЮЗ, 3 м/с75%1008 гПамалооблачно
05:00+19ЮЗ, 2 м/с84%1008 гПамалооблачно
06:00+18Ю, 1 м/с93%1009 гПас прояснениями
07:00+18Ю, 1 м/с95%1009 гПас прояснениями
08:00+18Ю, 1 м/с93%1009 гПас прояснениями
09:00+20ЮЗ, 2 м/с88%1010 гПаоблачно
10:00+21З, 3 м/с81%1011 гПаоблачно
11:00+22З, 4 м/с73%1011 гПаоблачно
12:00+22З, 4 м/с68%1012 гПаоблачно
13:00+22З, 4 м/с67%1013 гПаоблачно
14:00+22З, 4 м/с64%1013 гПаоблачносл. дождь
15:00+21З, 3 м/с73%1013 гПаоблачносл. дождь
16:00+20З, 3 м/с78%1014 гПаоблачносл. дождь
17:00+20З, 2 м/с77%1014 гПаоблачносл. дождь
18:00+19СЗ, 2 м/с80%1015 гПаоблачно
19:00+18СЗ, 1 м/с83%1015 гПаоблачно
20:00+18С, 1 м/с82%1015 гПас прояснениями
21:00+17Штиль 90%1015 гПас прояснениями
22:00+15Ю, 1 м/с94%1016 гПамалооблачно
23:00+15Ю, 1 м/с96%1016 гПамалооблачно
20 августа
00:00+14Ю, 1 м/с97%1016 гПамалооблачно
01:00+14Ю, 2 м/с97%1017 гПамалооблачно
02:00+14Ю, 2 м/с98%1017 гПаоблачно
03:00+14ЮВ, 2 м/с98%1017 гПаоблачно
04:00+14Ю, 2 м/с96%1018 гПаоблачно
05:00+15Ю, 2 м/с95%1018 гПаоблачно
06:00+15Ю, 2 м/с96%1019 гПаоблачно
07:00+14Ю, 2 м/с98%1019 гПас прояснениями
08:00+15ЮЗ, 2 м/с98%1020 гПаоблачно
09:00+17Ю, 2 м/с96%1021 гПаоблачно
10:00+18ЮЗ, 2 м/с91%1021 гПаоблачно
11:00+21З, 3 м/с62%1022 гПаоблачно
12:00+22ЮЗ, 4 м/с41%1022 гПас прояснениями
13:00+23З, 4 м/с42%1022 гПамалооблачно
14:00+23З, 4 м/с43%1022 гПамалооблачно
15:00+23З, 4 м/с46%1023 гПамалооблачно
16:00+23З, 3 м/с48%1023 гПамалооблачно
17:00+23З, 2 м/с50%1023 гПас прояснениями
18:00+22СЗ, 3 м/с53%1023 гПас прояснениями
19:00+20С, 3 м/с58%1023 гПаоблачно
20:00+19СВ, 2 м/с61%1023 гПаоблачно
21:00+18СВ, 2 м/с68%1023 гПаоблачно
22:00+18В, 2 м/с74%1023 гПаоблачно
23:00+18В, 2 м/с72%1023 гПаоблачно
21 августа
00:00+17В, 2 м/с71%1023 гПаоблачно
01:00+17В, 3 м/с70%1022 гПаоблачно
02:00+17В, 3 м/с70%1022 гПаоблачно
03:00+17В, 3 м/с71%1022 гПаоблачно